Terminal Aerodrome Forecast
Issued by NWS Wilmington, OH

Current Version | Previous Version | Text Only | Print | Product List | Glossary Off
Versions: 1 2 3 4 5 6 7 8 9 10 11 12

612
FTUS41 KILN 250523
TAFDAY
TAF
KDAY 250523Z 2506/2606 12007KT P6SM SCT035 SCT070
     FM251600 14008KT P6SM SCT040
     FM260300 14007KT P6SM SCT250=

USA.gov is the U.S. government's official web portal to all federal, state and local government web resources and services.